sensor_id;sensor_type;location;lat;lon;timestamp;P1;durP1;ratioP1;P2;durP2;ratioP2
2772;SDS011;1394;47.044;15.744;2023-04-01T00:01:44;23.90;;;1.00;;
2772;SDS011;1394;47.044;15.744;2023-04-01T00:04:12;24.20;;;1.13;;
2772;SDS011;1394;47.044;15.744;2023-04-01T00:06:42;25.00;;;1.33;;
2772;SDS011;1394;47.044;15.744;2023-04-01T00:09:09;23.70;;;1.00;;
2772;SDS011;1394;47.044;15.744;2023-04-01T00:11:36;23.80;;;0.90;;
2772;SDS011;1394;47.044;15.744;2023-04-01T00:14:04;23.80;;;1.10;;
2772;SDS011;1394;47.044;15.744;2023-04-01T00:16:31;24.03;;;1.00;;
2772;SDS011;1394;47.044;15.744;2023-04-01T00:18:58;23.87;;;1.00;;
2772;SDS011;1394;47.044;15.744;2023-04-01T00:21:25;23.90;;;0.90;;
2772;SDS011;1394;47.044;15.744;2023-04-01T00:23:54;24.00;;;1.10;;
2772;SDS011;1394;47.044;15.744;2023-04-01T00:26:21;24.20;;;1.00;;
2772;SDS011;1394;47.044;15.744;2023-04-01T00:28:49;24.10;;;1.00;;
2772;SDS011;1394;47.044;15.744;2023-04-01T00:31:16;23.80;;;0.80;;
2772;SDS011;1394;47.044;15.744;2023-04-01T00:33:44;23.80;;;0.90;;
2772;SDS011;1394;47.044;15.744;2023-04-01T00:36:11;24.73;;;1.13;;
2772;SDS011;1394;47.044;15.744;2023-04-01T00:38:39;23.60;;;0.80;;
2772;SDS011;1394;47.044;15.744;2023-04-01T00:41:08;23.80;;;0.80;;
2772;SDS011;1394;47.044;15.744;2023-04-01T00:43:39;23.80;;;0.90;;
2772;SDS011;1394;47.044;15.744;2023-04-01T00:46:06;24.20;;;1.00;;
2772;SDS011;1394;47.044;15.744;2023-04-01T00:48:34;23.60;;;0.70;;
2772;SDS011;1394;47.044;15.744;2023-04-01T00:51:04;23.83;;;0.80;;
2772;SDS011;1394;47.044;15.744;2023-04-01T00:53:32;23.80;;;0.80;;
2772;SDS011;1394;47.044;15.744;2023-04-01T00:56:00;23.83;;;1.00;;
2772;SDS011;1394;47.044;15.744;2023-04-01T00:58:29;23.97;;;1.10;;
2772;SDS011;1394;47.044;15.744;2023-04-01T01:01:00;24.47;;;1.20;;
2772;SDS011;1394;47.044;15.744;2023-04-01T01:03:27;24.23;;;1.13;;
2772;SDS011;1394;47.044;15.744;2023-04-01T01:06:00;23.80;;;0.93;;
2772;SDS011;1394;47.044;15.744;2023-04-01T01:08:33;24.40;;;1.00;;
2772;SDS011;1394;47.044;15.744;2023-04-01T01:11:04;23.80;;;1.00;;
2772;SDS011;1394;47.044;15.744;2023-04-01T01:13:34;24.00;;;1.17;;
2772;SDS011;1394;47.044;15.744;2023-04-01T01:16:03;23.80;;;0.90;;
2772;SDS011;1394;47.044;15.744;2023-04-01T01:18:35;23.93;;;0.80;;
2772;SDS011;1394;47.044;15.744;2023-04-01T01:26:54;24.83;;;1.43;;
2772;SDS011;1394;47.044;15.744;2023-04-01T01:29:38;24.30;;;1.43;;
2772;SDS011;1394;47.044;15.744;2023-04-01T01:32:10;25.10;;;1.37;;
2772;SDS011;1394;47.044;15.744;2023-04-01T01:34:42;24.07;;;1.27;;
2772;SDS011;1394;47.044;15.744;2023-04-01T01:37:16;24.30;;;1.30;;
2772;SDS011;1394;47.044;15.744;2023-04-01T01:39:46;24.20;;;1.40;;
2772;SDS011;1394;47.044;15.744;2023-04-01T01:42:15;24.77;;;1.60;;
2772;SDS011;1394;47.044;15.744;2023-04-01T01:44:44;24.17;;;1.60;;
2772;SDS011;1394;47.044;15.744;2023-04-01T01:47:12;24.10;;;1.30;;
2772;SDS011;1394;47.044;15.744;2023-04-01T01:49:43;27.17;;;2.17;;
2772;SDS011;1394;47.044;15.744;2023-04-01T01:52:12;24.20;;;1.50;;
2772;SDS011;1394;47.044;15.744;2023-04-01T01:54:48;23.97;;;1.33;;
2772;SDS011;1394;47.044;15.744;2023-04-01T01:57:15;23.80;;;1.00;;
2772;SDS011;1394;47.044;15.744;2023-04-01T01:59:43;24.00;;;1.17;;
2772;SDS011;1394;47.044;15.744;2023-04-01T02:02:13;24.00;;;1.10;;
2772;SDS011;1394;47.044;15.744;2023-04-01T02:04:42;24.50;;;1.43;;
2772;SDS011;1394;47.044;15.744;2023-04-01T02:07:11;25.17;;;1.07;;
2772;SDS011;1394;47.044;15.744;2023-04-01T02:09:43;24.10;;;1.10;;
2772;SDS011;1394;47.044;15.744;2023-04-01T02:12:13;24.03;;;1.10;;
2772;SDS011;1394;47.044;15.744;2023-04-01T02:14:43;23.93;;;1.17;;
2772;SDS011;1394;47.044;15.744;2023-04-01T02:17:12;24.30;;;1.13;;
2772;SDS011;1394;47.044;15.744;2023-04-01T02:19:40;24.10;;;1.20;;
2772;SDS011;1394;47.044;15.744;2023-04-01T02:22:10;23.90;;;1.20;;
2772;SDS011;1394;47.044;15.744;2023-04-01T02:24:39;24.13;;;1.27;;
2772;SDS011;1394;47.044;15.744;2023-04-01T02:27:07;24.20;;;1.40;;
2772;SDS011;1394;47.044;15.744;2023-04-01T02:29:37;24.00;;;1.20;;
2772;SDS011;1394;47.044;15.744;2023-04-01T02:32:04;24.30;;;1.60;;
2772;SDS011;1394;47.044;15.744;2023-04-01T02:34:33;24.60;;;2.00;;
2772;SDS011;1394;47.044;15.744;2023-04-01T02:37:00;24.10;;;1.20;;
2772;SDS011;1394;47.044;15.744;2023-04-01T02:39:27;24.07;;;1.57;;
2772;SDS011;1394;47.044;15.744;2023-04-01T02:41:55;23.97;;;1.40;;
2772;SDS011;1394;47.044;15.744;2023-04-01T02:44:22;24.10;;;1.50;;
2772;SDS011;1394;47.044;15.744;2023-04-01T02:46:51;23.90;;;1.30;;
2772;SDS011;1394;47.044;15.744;2023-04-01T02:49:18;24.00;;;1.30;;
2772;SDS011;1394;47.044;15.744;2023-04-01T02:51:45;24.17;;;1.23;;
2772;SDS011;1394;47.044;15.744;2023-04-01T02:54:12;24.10;;;1.23;;
2772;SDS011;1394;47.044;15.744;2023-04-01T02:56:40;24.07;;;1.30;;
2772;SDS011;1394;47.044;15.744;2023-04-01T02:59:07;24.10;;;1.50;;
2772;SDS011;1394;47.044;15.744;2023-04-01T03:01:35;24.50;;;1.60;;
2772;SDS011;1394;47.044;15.744;2023-04-01T03:04:06;24.00;;;1.30;;
2772;SDS011;1394;47.044;15.744;2023-04-01T03:06:34;24.43;;;1.40;;
2772;SDS011;1394;47.044;15.744;2023-04-01T03:09:01;23.90;;;1.30;;
2772;SDS011;1394;47.044;15.744;2023-04-01T03:11:28;24.37;;;1.50;;
2772;SDS011;1394;47.044;15.744;2023-04-01T03:13:55;24.10;;;1.20;;
2772;SDS011;1394;47.044;15.744;2023-04-01T03:16:23;23.97;;;1.27;;
2772;SDS011;1394;47.044;15.744;2023-04-01T03:18:52;23.80;;;1.10;;
2772;SDS011;1394;47.044;15.744;2023-04-01T03:21:23;23.93;;;1.00;;
2772;SDS011;1394;47.044;15.744;2023-04-01T03:23:50;23.80;;;1.10;;
2772;SDS011;1394;47.044;15.744;2023-04-01T03:26:18;23.87;;;1.07;;
2772;SDS011;1394;47.044;15.744;2023-04-01T03:28:46;24.57;;;1.10;;
2772;SDS011;1394;47.044;15.744;2023-04-01T03:31:13;24.63;;;1.60;;
2772;SDS011;1394;47.044;15.744;2023-04-01T03:33:43;24.40;;;1.90;;
2772;SDS011;1394;47.044;15.744;2023-04-01T03:36:13;25.07;;;1.60;;
2772;SDS011;1394;47.044;15.744;2023-04-01T03:38:45;24.60;;;2.30;;
2772;SDS011;1394;47.044;15.744;2023-04-01T03:41:13;25.23;;;1.97;;
2772;SDS011;1394;47.044;15.744;2023-04-01T03:43:40;24.50;;;2.03;;
2772;SDS011;1394;47.044;15.744;2023-04-01T03:46:07;24.00;;;1.60;;
2772;SDS011;1394;47.044;15.744;2023-04-01T03:48:35;24.67;;;2.33;;
2772;SDS011;1394;47.044;15.744;2023-04-01T03:51:05;24.10;;;1.37;;
2772;SDS011;1394;47.044;15.744;2023-04-01T03:53:33;24.30;;;1.23;;
2772;SDS011;1394;47.044;15.744;2023-04-01T03:56:05;24.10;;;1.23;;
2772;SDS011;1394;47.044;15.744;2023-04-01T03:58:32;24.13;;;1.60;;
2772;SDS011;1394;47.044;15.744;2023-04-01T04:01:01;24.30;;;1.43;;
2772;SDS011;1394;47.044;15.744;2023-04-01T04:03:28;24.97;;;2.10;;
2772;SDS011;1394;47.044;15.744;2023-04-01T04:05:55;24.10;;;1.50;;
2772;SDS011;1394;47.044;15.744;2023-04-01T04:08:22;23.80;;;1.10;;
2772;SDS011;1394;47.044;15.744;2023-04-01T04:10:54;25.30;;;1.30;;
2772;SDS011;1394;47.044;15.744;2023-04-01T04:13:23;24.37;;;1.13;;
2772;SDS011;1394;47.044;15.744;2023-04-01T04:15:52;24.20;;;1.40;;
2772;SDS011;1394;47.044;15.744;2023-04-01T04:18:19;26.00;;;2.10;;
2772;SDS011;1394;47.044;15.744;2023-04-01T04:20:46;24.87;;;2.37;;
2772;SDS011;1394;47.044;15.744;2023-04-01T04:23:16;28.87;;;6.90;;
2772;SDS011;1394;47.044;15.744;2023-04-01T04:25:52;26.87;;;5.90;;
2772;SDS011;1394;47.044;15.744;2023-04-01T04:28:20;25.63;;;4.10;;
2772;SDS011;1394;47.044;15.744;2023-04-01T04:30:48;26.90;;;5.67;;
2772;SDS011;1394;47.044;15.744;2023-04-01T04:33:17;25.30;;;3.30;;
2772;SDS011;1394;47.044;15.744;2023-04-01T04:35:44;25.27;;;3.13;;
2772;SDS011;1394;47.044;15.744;2023-04-01T04:38:12;24.90;;;1.63;;
2772;SDS011;1394;47.044;15.744;2023-04-01T04:40:40;24.20;;;1.30;;
2772;SDS011;1394;47.044;15.744;2023-04-01T04:43:09;24.00;;;1.10;;
2772;SDS011;1394;47.044;15.744;2023-04-01T04:45:37;24.07;;;1.47;;
2772;SDS011;1394;47.044;15.744;2023-04-01T04:48:08;24.10;;;1.70;;
2772;SDS011;1394;47.044;15.744;2023-04-01T04:50:39;24.10;;;1.57;;
2772;SDS011;1394;47.044;15.744;2023-04-01T04:53:08;23.80;;;1.00;;
2772;SDS011;1394;47.044;15.744;2023-04-01T04:55:36;23.70;;;1.10;;
2772;SDS011;1394;47.044;15.744;2023-04-01T04:58:03;24.40;;;1.00;;
2772;SDS011;1394;47.044;15.744;2023-04-01T05:00:31;24.57;;;1.40;;
2772;SDS011;1394;47.044;15.744;2023-04-01T05:02:59;24.90;;;1.40;;
2772;SDS011;1394;47.044;15.744;2023-04-01T05:05:28;24.27;;;1.30;;
2772;SDS011;1394;47.044;15.744;2023-04-01T05:07:55;23.97;;;1.50;;
2772;SDS011;1394;47.044;15.744;2023-04-01T05:10:23;24.10;;;1.23;;
2772;SDS011;1394;47.044;15.744;2023-04-01T05:12:53;24.47;;;1.80;;
2772;SDS011;1394;47.044;15.744;2023-04-01T05:15:20;23.90;;;1.40;;
2772;SDS011;1394;47.044;15.744;2023-04-01T05:17:48;26.50;;;1.90;;
2772;SDS011;1394;47.044;15.744;2023-04-01T05:20:16;24.10;;;1.60;;
2772;SDS011;1394;47.044;15.744;2023-04-01T05:22:44;24.03;;;1.20;;
2772;SDS011;1394;47.044;15.744;2023-04-01T05:25:11;24.00;;;1.40;;
2772;SDS011;1394;47.044;15.744;2023-04-01T05:27:39;24.63;;;1.60;;
2772;SDS011;1394;47.044;15.744;2023-04-01T05:30:06;24.17;;;1.43;;
2772;SDS011;1394;47.044;15.744;2023-04-01T05:32:33;24.17;;;1.47;;
2772;SDS011;1394;47.044;15.744;2023-04-01T05:35:03;24.10;;;1.67;;
2772;SDS011;1394;47.044;15.744;2023-04-01T05:37:30;23.97;;;1.30;;
2772;SDS011;1394;47.044;15.744;2023-04-01T05:39:58;24.07;;;1.40;;
2772;SDS011;1394;47.044;15.744;2023-04-01T05:42:26;24.40;;;1.50;;
2772;SDS011;1394;47.044;15.744;2023-04-01T05:44:53;23.80;;;1.13;;
2772;SDS011;1394;47.044;15.744;2023-04-01T05:47:21;24.03;;;1.40;;
2772;SDS011;1394;47.044;15.744;2023-04-01T05:49:48;23.97;;;1.20;;
2772;SDS011;1394;47.044;15.744;2023-04-01T05:52:15;25.20;;;2.00;;
2772;SDS011;1394;47.044;15.744;2023-04-01T05:54:43;24.53;;;1.77;;
2772;SDS011;1394;47.044;15.744;2023-04-01T05:57:12;25.10;;;2.60;;
2772;SDS011;1394;47.044;15.744;2023-04-01T05:59:39;24.07;;;1.43;;
2772;SDS011;1394;47.044;15.744;2023-04-01T06:02:07;24.00;;;1.20;;
2772;SDS011;1394;47.044;15.744;2023-04-01T06:04:39;23.90;;;1.07;;
2772;SDS011;1394;47.044;15.744;2023-04-01T06:07:10;24.00;;;1.10;;
2772;SDS011;1394;47.044;15.744;2023-04-01T06:09:38;23.97;;;1.27;;
2772;SDS011;1394;47.044;15.744;2023-04-01T06:12:14;24.00;;;1.20;;
2772;SDS011;1394;47.044;15.744;2023-04-01T06:14:46;23.87;;;1.40;;
2772;SDS011;1394;47.044;15.744;2023-04-01T06:17:21;24.17;;;1.63;;
2772;SDS011;1394;47.044;15.744;2023-04-01T06:19:51;24.37;;;1.60;;
2772;SDS011;1394;47.044;15.744;2023-04-01T06:22:36;24.37;;;1.67;;
2772;SDS011;1394;47.044;15.744;2023-04-01T06:28:00;24.10;;;1.20;;
2772;SDS011;1394;47.044;15.744;2023-04-01T06:30:37;24.10;;;1.40;;
2772;SDS011;1394;47.044;15.744;2023-04-01T06:33:11;23.90;;;1.10;;
2772;SDS011;1394;47.044;15.744;2023-04-01T06:35:55;24.43;;;1.80;;
2772;SDS011;1394;47.044;15.744;2023-04-01T06:38:35;24.70;;;1.40;;
2772;SDS011;1394;47.044;15.744;2023-04-01T06:41:09;24.17;;;1.53;;
2772;SDS011;1394;47.044;15.744;2023-04-01T06:43:45;26.10;;;1.30;;
2772;SDS011;1394;47.044;15.744;2023-04-01T06:46:17;23.97;;;1.20;;
2772;SDS011;1394;47.044;15.744;2023-04-01T06:48:54;23.90;;;1.30;;
2772;SDS011;1394;47.044;15.744;2023-04-01T06:51:26;23.90;;;1.20;;
2772;SDS011;1394;47.044;15.744;2023-04-01T06:54:11;24.40;;;1.40;;
2772;SDS011;1394;47.044;15.744;2023-04-01T06:56:40;24.00;;;1.20;;
2772;SDS011;1394;47.044;15.744;2023-04-01T06:59:11;24.37;;;1.10;;
2772;SDS011;1394;47.044;15.744;2023-04-01T07:01:40;24.40;;;1.60;;
2772;SDS011;1394;47.044;15.744;2023-04-01T07:04:09;23.80;;;1.07;;
2772;SDS011;1394;47.044;15.744;2023-04-01T07:06:39;24.10;;;1.10;;
2772;SDS011;1394;47.044;15.744;2023-04-01T07:09:10;24.27;;;1.20;;
2772;SDS011;1394;47.044;15.744;2023-04-01T07:11:39;23.80;;;0.80;;
2772;SDS011;1394;47.044;15.744;2023-04-01T07:14:20;24.07;;;0.90;;
2772;SDS011;1394;47.044;15.744;2023-04-01T07:16:50;23.90;;;1.00;;
2772;SDS011;1394;47.044;15.744;2023-04-01T07:19:21;23.80;;;0.80;;
2772;SDS011;1394;47.044;15.744;2023-04-01T07:21:49;24.27;;;1.00;;
2772;SDS011;1394;47.044;15.744;2023-04-01T07:24:21;23.90;;;0.90;;
2772;SDS011;1394;47.044;15.744;2023-04-01T07:26:54;24.23;;;1.10;;
2772;SDS011;1394;47.044;15.744;2023-04-01T07:29:23;24.10;;;1.07;;
2772;SDS011;1394;47.044;15.744;2023-04-01T07:31:58;24.57;;;1.30;;
2772;SDS011;1394;47.044;15.744;2023-04-01T07:34:30;24.97;;;1.30;;
2772;SDS011;1394;47.044;15.744;2023-04-01T07:37:02;24.40;;;1.50;;
2772;SDS011;1394;47.044;15.744;2023-04-01T07:39:35;24.40;;;1.20;;
2772;SDS011;1394;47.044;15.744;2023-04-01T07:42:06;24.13;;;1.10;;
2772;SDS011;1394;47.044;15.744;2023-04-01T07:44:39;24.10;;;1.00;;
2772;SDS011;1394;47.044;15.744;2023-04-01T07:47:30;24.03;;;0.90;;
2772;SDS011;1394;47.044;15.744;2023-04-01T07:50:02;24.00;;;0.87;;
2772;SDS011;1394;47.044;15.744;2023-04-01T07:52:33;24.00;;;0.90;;
2772;SDS011;1394;47.044;15.744;2023-04-01T07:55:03;23.80;;;0.60;;
2772;SDS011;1394;47.044;15.744;2023-04-01T07:57:33;23.90;;;0.70;;
2772;SDS011;1394;47.044;15.744;2023-04-01T08:00:06;24.83;;;0.60;;
2772;SDS011;1394;47.044;15.744;2023-04-01T08:02:40;24.30;;;0.80;;
2772;SDS011;1394;47.044;15.744;2023-04-01T08:05:14;24.30;;;0.80;;
2772;SDS011;1394;47.044;15.744;2023-04-01T08:07:48;24.20;;;0.83;;
2772;SDS011;1394;47.044;15.744;2023-04-01T08:10:18;24.97;;;0.80;;
2772;SDS011;1394;47.044;15.744;2023-04-01T08:12:51;24.43;;;1.03;;
2772;SDS011;1394;47.044;15.744;2023-04-01T08:15:22;24.30;;;0.80;;
2772;SDS011;1394;47.044;15.744;2023-04-01T08:17:55;24.50;;;0.90;;
2772;SDS011;1394;47.044;15.744;2023-04-01T08:20:28;24.10;;;0.80;;
2772;SDS011;1394;47.044;15.744;2023-04-01T08:23:11;24.27;;;0.80;;
2772;SDS011;1394;47.044;15.744;2023-04-01T08:25:40;24.10;;;0.60;;
2772;SDS011;1394;47.044;15.744;2023-04-01T08:28:13;24.10;;;0.60;;
2772;SDS011;1394;47.044;15.744;2023-04-01T08:30:44;24.20;;;0.63;;
2772;SDS011;1394;47.044;15.744;2023-04-01T08:33:15;24.20;;;0.60;;
2772;SDS011;1394;47.044;15.744;2023-04-01T08:35:46;26.57;;;0.60;;
2772;SDS011;1394;47.044;15.744;2023-04-01T08:38:18;24.43;;;0.93;;
2772;SDS011;1394;47.044;15.744;2023-04-01T08:40:57;24.63;;;0.60;;
2772;SDS011;1394;47.044;15.744;2023-04-01T08:43:31;24.07;;;0.60;;
2772;SDS011;1394;47.044;15.744;2023-04-01T08:46:10;24.60;;;0.60;;
2772;SDS011;1394;47.044;15.744;2023-04-01T08:48:45;24.10;;;0.50;;
2772;SDS011;1394;47.044;15.744;2023-04-01T08:51:29;24.00;;;0.60;;
2772;SDS011;1394;47.044;15.744;2023-04-01T08:54:10;24.33;;;0.60;;
2772;SDS011;1394;47.044;15.744;2023-04-01T08:56:42;24.10;;;0.40;;
2772;SDS011;1394;47.044;15.744;2023-04-01T08:59:27;24.20;;;0.50;;
2772;SDS011;1394;47.044;15.744;2023-04-01T09:02:01;24.27;;;0.50;;
2772;SDS011;1394;47.044;15.744;2023-04-01T09:04:37;24.20;;;0.40;;
2772;SDS011;1394;47.044;15.744;2023-04-01T09:07:12;24.37;;;0.50;;
2772;SDS011;1394;47.044;15.744;2023-04-01T09:12:45;24.30;;;0.40;;
2772;SDS011;1394;47.044;15.744;2023-04-01T09:18:22;24.60;;;0.57;;
2772;SDS011;1394;47.044;15.744;2023-04-01T09:20:57;24.60;;;0.60;;
2772;SDS011;1394;47.044;15.744;2023-04-01T09:23:35;24.40;;;0.57;;
2772;SDS011;1394;47.044;15.744;2023-04-01T09:26:18;24.20;;;0.43;;
2772;SDS011;1394;47.044;15.744;2023-04-01T09:28:54;24.30;;;0.50;;
2772;SDS011;1394;47.044;15.744;2023-04-01T09:31:45;24.20;;;0.50;;
2772;SDS011;1394;47.044;15.744;2023-04-01T09:34:27;24.40;;;0.43;;
2772;SDS011;1394;47.044;15.744;2023-04-01T09:37:02;24.40;;;0.50;;
2772;SDS011;1394;47.044;15.744;2023-04-01T09:39:40;24.40;;;0.40;;
2772;SDS011;1394;47.044;15.744;2023-04-01T09:42:20;24.50;;;0.40;;
2772;SDS011;1394;47.044;15.744;2023-04-01T09:44:50;24.77;;;0.50;;
2772;SDS011;1394;47.044;15.744;2023-04-01T09:47:24;24.57;;;0.43;;
2772;SDS011;1394;47.044;15.744;2023-04-01T09:50:03;24.40;;;0.43;;
2772;SDS011;1394;47.044;15.744;2023-04-01T09:52:38;24.50;;;0.50;;
2772;SDS011;1394;47.044;15.744;2023-04-01T09:55:21;24.67;;;0.40;;
2772;SDS011;1394;47.044;15.744;2023-04-01T09:58:04;24.60;;;0.50;;
2772;SDS011;1394;47.044;15.744;2023-04-01T10:00:46;24.70;;;0.50;;
2772;SDS011;1394;47.044;15.744;2023-04-01T10:03:27;24.50;;;0.50;;
2772;SDS011;1394;47.044;15.744;2023-04-01T10:08:58;25.13;;;0.60;;
2772;SDS011;1394;47.044;15.744;2023-04-01T10:14:31;24.40;;;0.43;;
2772;SDS011;1394;47.044;15.744;2023-04-01T10:17:14;24.40;;;0.40;;
2772;SDS011;1394;47.044;15.744;2023-04-01T10:28:46;24.40;;;0.50;;
2772;SDS011;1394;47.044;15.744;2023-04-01T10:31:34;24.40;;;0.50;;
2772;SDS011;1394;47.044;15.744;2023-04-01T10:34:23;24.50;;;0.50;;
2772;SDS011;1394;47.044;15.744;2023-04-01T10:36:57;24.50;;;0.50;;
2772;SDS011;1394;47.044;15.744;2023-04-01T10:50:47;24.40;;;0.40;;
2772;SDS011;1394;47.044;15.744;2023-04-01T10:53:28;24.60;;;0.40;;
2772;SDS011;1394;47.044;15.744;2023-04-01T11:04:44;24.33;;;0.50;;
2772;SDS011;1394;47.044;15.744;2023-04-01T11:24:04;26.10;;;0.67;;
2772;SDS011;1394;47.044;15.744;2023-04-01T11:26:36;24.40;;;0.50;;
2772;SDS011;1394;47.044;15.744;2023-04-01T11:29:30;24.40;;;0.47;;
2772;SDS011;1394;47.044;15.744;2023-04-01T11:32:02;24.53;;;0.60;;
2772;SDS011;1394;47.044;15.744;2023-04-01T11:34:41;24.97;;;0.67;;
2772;SDS011;1394;47.044;15.744;2023-04-01T11:37:13;24.40;;;0.50;;
2772;SDS011;1394;47.044;15.744;2023-04-01T11:39:50;24.33;;;0.60;;
2772;SDS011;1394;47.044;15.744;2023-04-01T11:42:24;24.50;;;0.50;;
2772;SDS011;1394;47.044;15.744;2023-04-01T11:44:57;24.50;;;0.50;;
2772;SDS011;1394;47.044;15.744;2023-04-01T11:47:40;24.47;;;0.50;;
2772;SDS011;1394;47.044;15.744;2023-04-01T11:50:15;24.53;;;0.57;;
2772;SDS011;1394;47.044;15.744;2023-04-01T11:52:52;24.67;;;0.50;;
2772;SDS011;1394;47.044;15.744;2023-04-01T11:55:27;25.33;;;0.60;;
2772;SDS011;1394;47.044;15.744;2023-04-01T11:57:59;24.70;;;0.60;;
2772;SDS011;1394;47.044;15.744;2023-04-01T12:00:40;25.67;;;0.70;;
2772;SDS011;1394;47.044;15.744;2023-04-01T12:03:15;24.80;;;0.53;;
2772;SDS011;1394;47.044;15.744;2023-04-01T12:05:45;24.70;;;0.43;;
2772;SDS011;1394;47.044;15.744;2023-04-01T12:08:18;24.60;;;0.53;;
2772;SDS011;1394;47.044;15.744;2023-04-01T12:10:55;25.10;;;0.40;;
2772;SDS011;1394;47.044;15.744;2023-04-01T12:13:31;24.60;;;0.50;;
2772;SDS011;1394;47.044;15.744;2023-04-01T12:16:04;24.80;;;0.50;;
2772;SDS011;1394;47.044;15.744;2023-04-01T12:18:35;24.70;;;0.50;;
2772;SDS011;1394;47.044;15.744;2023-04-01T12:21:09;24.70;;;0.50;;
2772;SDS011;1394;47.044;15.744;2023-04-01T12:23:48;25.53;;;0.47;;
2772;SDS011;1394;47.044;15.744;2023-04-01T12:26:24;24.70;;;0.40;;
2772;SDS011;1394;47.044;15.744;2023-04-01T12:31:45;24.73;;;0.60;;
2772;SDS011;1394;47.044;15.744;2023-04-01T12:34:30;24.60;;;0.50;;
2772;SDS011;1394;47.044;15.744;2023-04-01T12:37:03;24.90;;;0.43;;
2772;SDS011;1394;47.044;15.744;2023-04-01T12:39:44;24.50;;;0.40;;
2772;SDS011;1394;47.044;15.744;2023-04-01T12:42:27;24.67;;;0.47;;
2772;SDS011;1394;47.044;15.744;2023-04-01T12:45:02;24.60;;;0.40;;
2772;SDS011;1394;47.044;15.744;2023-04-01T12:47:42;24.50;;;0.50;;
2772;SDS011;1394;47.044;15.744;2023-04-01T12:50:16;24.60;;;0.47;;
2772;SDS011;1394;47.044;15.744;2023-04-01T12:52:51;24.60;;;0.50;;
2772;SDS011;1394;47.044;15.744;2023-04-01T12:55:35;24.70;;;0.40;;
2772;SDS011;1394;47.044;15.744;2023-04-01T12:58:10;24.60;;;0.40;;
2772;SDS011;1394;47.044;15.744;2023-04-01T13:00:48;24.80;;;0.53;;
2772;SDS011;1394;47.044;15.744;2023-04-01T13:06:09;24.47;;;0.40;;
2772;SDS011;1394;47.044;15.744;2023-04-01T13:08:40;24.50;;;0.40;;
2772;SDS011;1394;47.044;15.744;2023-04-01T13:11:13;24.60;;;0.50;;
2772;SDS011;1394;47.044;15.744;2023-04-01T13:13:57;24.67;;;0.40;;
2772;SDS011;1394;47.044;15.744;2023-04-01T13:16:31;24.60;;;0.60;;
2772;SDS011;1394;47.044;15.744;2023-04-01T13:19:02;24.67;;;0.57;;
2772;SDS011;1394;47.044;15.744;2023-04-01T13:21:34;24.60;;;0.40;;
2772;SDS011;1394;47.044;15.744;2023-04-01T13:24:04;24.60;;;0.40;;
2772;SDS011;1394;47.044;15.744;2023-04-01T13:26:36;24.60;;;0.50;;
2772;SDS011;1394;47.044;15.744;2023-04-01T13:29:06;24.60;;;0.40;;
2772;SDS011;1394;47.044;15.744;2023-04-01T13:31:42;25.07;;;0.50;;
2772;SDS011;1394;47.044;15.744;2023-04-01T13:34:17;24.70;;;0.40;;
2772;SDS011;1394;47.044;15.744;2023-04-01T13:36:50;24.77;;;0.40;;
2772;SDS011;1394;47.044;15.744;2023-04-01T13:39:31;24.80;;;0.40;;
2772;SDS011;1394;47.044;15.744;2023-04-01T13:42:16;24.80;;;0.40;;
2772;SDS011;1394;47.044;15.744;2023-04-01T13:44:48;24.80;;;0.50;;
2772;SDS011;1394;47.044;15.744;2023-04-01T13:47:21;25.10;;;0.50;;
2772;SDS011;1394;47.044;15.744;2023-04-01T13:50:03;24.80;;;0.50;;
2772;SDS011;1394;47.044;15.744;2023-04-01T13:52:47;24.60;;;0.40;;
2772;SDS011;1394;47.044;15.744;2023-04-01T13:55:21;24.70;;;0.43;;
2772;SDS011;1394;47.044;15.744;2023-04-01T14:00:47;24.83;;;0.40;;
2772;SDS011;1394;47.044;15.744;2023-04-01T14:03:42;24.90;;;0.50;;
2772;SDS011;1394;47.044;15.744;2023-04-01T14:06:16;24.70;;;0.40;;
2772;SDS011;1394;47.044;15.744;2023-04-01T14:08:50;24.77;;;0.50;;
2772;SDS011;1394;47.044;15.744;2023-04-01T14:11:25;24.80;;;0.50;;
2772;SDS011;1394;47.044;15.744;2023-04-01T14:13:57;24.70;;;0.50;;
2772;SDS011;1394;47.044;15.744;2023-04-01T14:16:51;24.60;;;0.40;;
2772;SDS011;1394;47.044;15.744;2023-04-01T14:19:25;24.70;;;0.40;;
2772;SDS011;1394;47.044;15.744;2023-04-01T14:21:56;24.70;;;0.47;;
2772;SDS011;1394;47.044;15.744;2023-04-01T14:27:19;24.80;;;0.50;;
2772;SDS011;1394;47.044;15.744;2023-04-01T14:30:00;24.90;;;0.60;;
2772;SDS011;1394;47.044;15.744;2023-04-01T14:32:37;25.00;;;0.57;;
2772;SDS011;1394;47.044;15.744;2023-04-01T14:35:12;25.00;;;0.60;;
2772;SDS011;1394;47.044;15.744;2023-04-01T14:37:53;25.77;;;0.47;;
2772;SDS011;1394;47.044;15.744;2023-04-01T14:40:26;25.30;;;0.60;;
2772;SDS011;1394;47.044;15.744;2023-04-01T14:42:55;25.97;;;0.50;;
2772;SDS011;1394;47.044;15.744;2023-04-01T14:45:30;24.90;;;0.50;;
2772;SDS011;1394;47.044;15.744;2023-04-01T14:48:07;25.17;;;0.70;;
2772;SDS011;1394;47.044;15.744;2023-04-01T14:50:43;25.40;;;0.80;;
2772;SDS011;1394;47.044;15.744;2023-04-01T14:53:13;25.27;;;0.50;;
2772;SDS011;1394;47.044;15.744;2023-04-01T14:55:48;25.10;;;0.40;;
2772;SDS011;1394;47.044;15.744;2023-04-01T14:58:19;25.43;;;0.60;;
2772;SDS011;1394;47.044;15.744;2023-04-01T15:00:48;24.97;;;0.60;;
2772;SDS011;1394;47.044;15.744;2023-04-01T15:03:20;24.80;;;0.50;;
2772;SDS011;1394;47.044;15.744;2023-04-01T15:05:49;25.60;;;1.13;;
2772;SDS011;1394;47.044;15.744;2023-04-01T15:08:18;25.23;;;0.90;;
2772;SDS011;1394;47.044;15.744;2023-04-01T15:13:56;27.97;;;4.40;;
2772;SDS011;1394;47.044;15.744;2023-04-01T15:16:25;30.03;;;6.57;;
2772;SDS011;1394;47.044;15.744;2023-04-01T15:18:59;27.97;;;5.43;;
2772;SDS011;1394;47.044;15.744;2023-04-01T15:21:31;25.73;;;1.83;;
2772;SDS011;1394;47.044;15.744;2023-04-01T15:24:07;25.40;;;1.20;;
2772;SDS011;1394;47.044;15.744;2023-04-01T15:26:46;25.30;;;0.93;;
2772;SDS011;1394;47.044;15.744;2023-04-01T15:29:23;25.30;;;0.60;;
2772;SDS011;1394;47.044;15.744;2023-04-01T15:31:57;25.00;;;0.60;;
2772;SDS011;1394;47.044;15.744;2023-04-01T15:34:31;26.30;;;1.70;;
2772;SDS011;1394;47.044;15.744;2023-04-01T15:37:01;25.30;;;0.80;;
2772;SDS011;1394;47.044;15.744;2023-04-01T15:39:37;25.40;;;0.60;;
2772;SDS011;1394;47.044;15.744;2023-04-01T15:42:11;25.40;;;0.60;;
2772;SDS011;1394;47.044;15.744;2023-04-01T15:47:33;26.03;;;1.13;;
2772;SDS011;1394;47.044;15.744;2023-04-01T15:50:33;25.50;;;0.60;;
2772;SDS011;1394;47.044;15.744;2023-04-01T15:53:05;25.47;;;0.70;;
2772;SDS011;1394;47.044;15.744;2023-04-01T15:55:37;25.20;;;0.40;;
2772;SDS011;1394;47.044;15.744;2023-04-01T15:58:15;25.20;;;0.50;;
2772;SDS011;1394;47.044;15.744;2023-04-01T16:00:47;25.30;;;0.40;;
2772;SDS011;1394;47.044;15.744;2023-04-01T16:03:18;26.03;;;1.53;;
2772;SDS011;1394;47.044;15.744;2023-04-01T16:05:53;25.40;;;0.60;;
2772;SDS011;1394;47.044;15.744;2023-04-01T16:08:28;25.30;;;0.47;;
2772;SDS011;1394;47.044;15.744;2023-04-01T16:11:04;25.20;;;0.50;;
2772;SDS011;1394;47.044;15.744;2023-04-01T16:13:37;25.30;;;0.50;;
2772;SDS011;1394;47.044;15.744;2023-04-01T16:16:13;25.20;;;0.47;;
2772;SDS011;1394;47.044;15.744;2023-04-01T16:21:38;25.20;;;0.40;;
2772;SDS011;1394;47.044;15.744;2023-04-01T16:24:17;25.17;;;0.40;;
2772;SDS011;1394;47.044;15.744;2023-04-01T16:26:48;25.10;;;0.40;;
2772;SDS011;1394;47.044;15.744;2023-04-01T16:29:19;25.30;;;0.50;;
2772;SDS011;1394;47.044;15.744;2023-04-01T16:31:48;25.30;;;0.60;;
2772;SDS011;1394;47.044;15.744;2023-04-01T16:34:18;25.17;;;0.40;;
2772;SDS011;1394;47.044;15.744;2023-04-01T16:36:48;25.30;;;0.40;;
2772;SDS011;1394;47.044;15.744;2023-04-01T16:39:22;25.40;;;0.50;;
2772;SDS011;1394;47.044;15.744;2023-04-01T16:41:57;25.30;;;0.50;;
2772;SDS011;1394;47.044;15.744;2023-04-01T16:44:41;25.10;;;0.50;;
2772;SDS011;1394;47.044;15.744;2023-04-01T16:47:12;25.30;;;0.50;;